Time;durP1;ratioP1;P1;durP2;ratioP2;P2;SDS_P1;SDS_P2;PMS_P1;PMS_P2;Temp;Humidity;BMP_temperature;BMP_pressure;BME280_temperature;BME280_humidity;BME280_pressure;Samples;Min_cycle;Max_cycle;Signal;HPM_P1;HPM_P2
2020/12/11 00:02:26;;;;;;;50.38;16.70;;;;;;;0.03;89.91;100141.88;5099009;28;20204;-60
2020/12/11 00:04:53;;;;;;;50.15;17.55;;;;;;;-0.04;89.93;100137.13;5096226;28;20319;-60
2020/12/11 00:07:21;;;;;;;50.72;17.30;;;;;;;-0.11;90.39;100142.50;5098941;28;20196;-59
2020/12/11 00:09:47;;;;;;;39.33;15.95;;;;;;;0.01;90.48;100134.91;5097227;28;20528;-60
2020/12/11 00:12:14;;;;;;;46.55;15.45;;;;;;;0.05;90.35;100145.41;5099035;28;20227;-60
2020/12/11 00:14:41;;;;;;;45.28;16.80;;;;;;;-0.03;90.04;100138.88;5096641;28;20236;-60
2020/12/11 00:17:08;;;;;;;55.42;18.00;;;;;;;0.24;90.01;100131.53;5098374;28;20609;-60
2020/12/11 00:19:35;;;;;;;54.60;19.30;;;;;;;0.03;90.07;100129.19;5096899;28;20319;-62
2020/12/11 00:22:01;;;;;;;53.03;18.00;;;;;;;-0.03;90.36;100118.59;5098803;28;20200;-61
2020/12/11 00:24:29;;;;;;;51.75;17.08;;;;;;;0.28;91.25;100119.94;5096791;28;20261;-62
2020/12/11 00:26:59;;;;;;;44.47;16.38;;;;;;;0.60;90.85;100123.91;5098371;28;20485;-62
2020/12/11 00:29:25;;;;;;;45.47;16.95;;;;;;;0.69;89.85;100126.25;5096725;28;20235;-62
2020/12/11 00:31:52;;;;;;;49.63;17.25;;;;;;;0.67;90.11;100114.31;5098327;28;20204;-62
2020/12/11 00:34:19;;;;;;;46.85;16.30;;;;;;;0.32;89.48;100114.34;5096061;28;20678;-62
2020/12/11 00:36:46;;;;;;;49.38;17.25;;;;;;;0.43;89.71;100108.38;5098397;28;20574;-62
2020/12/11 00:39:12;;;;;;;47.28;17.25;;;;;;;0.66;89.39;100107.47;5096635;28;20555;-62
2020/12/11 00:41:40;;;;;;;50.75;16.42;;;;;;;0.63;89.71;100107.28;5097834;28;20206;-62
2020/12/11 00:44:07;;;;;;;46.47;16.60;;;;;;;0.59;88.62;100102.75;5096144;28;20689;-62
2020/12/11 00:46:33;;;;;;;53.03;16.25;;;;;;;0.87;87.15;100096.19;5097619;28;20635;-62
2020/12/11 00:49:00;;;;;;;43.80;16.02;;;;;;;1.00;87.90;100097.91;5095855;28;20559;-62
2020/12/11 00:51:26;;;;;;;53.50;17.77;;;;;;;0.98;87.00;100095.28;5097761;28;20200;-61
2020/12/11 00:53:53;;;;;;;50.55;16.88;;;;;;;0.88;87.08;100092.88;5096410;28;20323;-62
2020/12/11 00:56:20;;;;;;;42.60;16.50;;;;;;;0.74;87.64;100089.34;5097752;28;20214;-62
2020/12/11 00:58:47;;;;;;;45.22;15.15;;;;;;;0.71;88.15;100079.88;5096359;28;20231;-62
2020/12/11 01:01:14;;;;;;;48.72;16.30;;;;;;;0.56;88.05;100079.66;5097932;28;20207;-62
2020/12/11 01:03:41;;;;;;;51.05;15.88;;;;;;;0.49;88.61;100078.34;5096674;28;20318;-62
2020/12/11 01:06:07;;;;;;;48.70;17.48;;;;;;;0.39;88.92;100071.75;5097425;28;20242;-62
2020/12/11 01:08:34;;;;;;;51.78;18.23;;;;;;;0.28;89.26;100071.72;5095986;28;20250;-62
2020/12/11 01:11:00;;;;;;;54.63;17.42;;;;;;;0.17;89.97;100073.50;5097180;28;20238;-62
2020/12/11 01:13:27;;;;;;;52.97;18.05;;;;;;;0.24;90.16;100073.16;5094992;28;20271;-62
2020/12/11 01:15:54;;;;;;;53.15;18.85;;;;;;;0.20;90.05;100071.19;5097302;28;20631;-62
2020/12/11 01:18:21;;;;;;;79.22;24.83;;;;;;;0.37;90.17;100073.28;5095764;28;20231;-62
2020/12/11 01:20:48;;;;;;;51.30;18.20;;;;;;;0.48;89.46;100066.44;5097775;28;20282;-62
2020/12/11 01:23:15;;;;;;;47.90;17.95;;;;;;;0.22;89.94;100055.31;5095888;28;20319;-62
2020/12/11 01:25:41;;;;;;;71.88;22.85;;;;;;;0.19;90.11;100052.53;5097189;28;20224;-62
2020/12/11 01:28:08;;;;;;;63.53;23.05;;;;;;;0.19;90.14;100059.25;5095842;28;20235;-63
2020/12/11 01:30:34;;;;;;;58.70;18.67;;;;;;;0.27;90.09;100058.19;5097272;28;20295;-62
2020/12/11 01:33:02;;;;;;;66.85;21.98;;;;;;;0.24;90.80;100053.75;5095561;28;20231;-62
2020/12/11 01:35:29;;;;;;;68.57;20.95;;;;;;;0.20;90.51;100050.91;5096842;28;20581;-62
2020/12/11 01:37:55;;;;;;;55.67;19.05;;;;;;;0.21;90.30;100045.03;5095654;28;20224;-62
2020/12/11 01:40:22;;;;;;;61.20;19.75;;;;;;;0.25;89.65;100036.84;5097446;28;20200;-62
2020/12/11 01:42:48;;;;;;;64.80;19.13;;;;;;;0.29;89.70;100031.25;5095546;28;20212;-62
2020/12/11 01:45:15;;;;;;;62.70;19.80;;;;;;;0.20;89.80;100025.53;5096612;28;20231;-62
2020/12/11 01:47:42;;;;;;;65.10;19.75;;;;;;;0.20;90.24;100017.91;5095246;28;20192;-62
2020/12/11 01:50:18;;;;;;;56.10;19.10;;;;;;;0.34;89.83;100023.94;5097138;28;20232;-62
2020/12/11 01:52:46;;;;;;;63.50;20.17;;;;;;;0.18;89.88;100015.25;5086809;28;20654;-62
2020/12/11 01:55:13;;;;;;;64.00;19.80;;;;;;;0.20;90.03;100017.91;5110942;28;20264;-62
2020/12/11 01:57:48;;;;;;;56.15;17.52;;;;;;;0.17;90.01;100015.13;5095160;28;20231;-62
2020/12/11 02:00:19;;;;;;;58.25;19.02;;;;;;;0.32;89.96;100010.28;5096839;28;20231;-62
2020/12/11 02:02:46;;;;;;;69.43;23.02;;;;;;;0.17;90.38;100002.44;5095111;28;20508;-62
2020/12/11 02:05:14;;;;;;;58.53;20.70;;;;;;;0.29;89.90;100008.41;5093627;28;20223;-62
2020/12/11 02:07:41;;;;;;;61.42;19.40;;;;;;;0.25;90.05;100006.41;5095001;28;20582;-62
2020/12/11 02:10:09;;;;;;;60.35;20.38;;;;;;;0.20;89.78;100007.75;5096634;28;20247;-62
2020/12/11 02:12:36;;;;;;;58.95;16.58;;;;;;;0.16;89.67;100003.22;5096697;28;20582;-62
2020/12/11 02:15:04;;;;;;;51.67;17.98;;;;;;;-0.03;90.44;100001.91;5095429;28;20281;-62
2020/12/11 02:17:31;;;;;;;63.88;18.52;;;;;;;0.18;90.27;100009.28;5096290;28;20323;-62
2020/12/11 02:19:58;;;;;;;70.07;20.73;;;;;;;0.14;90.25;99992.97;5094632;28;20236;-62
2020/12/11 02:22:25;;;;;;;56.28;19.30;;;;;;;0.25;89.70;99992.06;5095637;28;20246;-60
2020/12/11 02:24:52;;;;;;;68.03;18.60;;;;;;;0.13;89.70;99999.72;5094203;28;20239;-60
2020/12/11 02:27:19;;;;;;;82.72;26.63;;;;;;;0.28;90.31;99986.34;5096334;28;20282;-60
2020/12/11 02:29:50;;;;;;;61.78;20.38;;;;;;;0.19;89.24;99986.56;5094424;28;20254;-60
2020/12/11 02:32:16;;;;;;;63.10;19.15;;;;;;;0.29;89.43;99977.94;5095765;28;20204;-60
2020/12/11 02:34:45;;;;;;;56.55;20.10;;;;;;;0.20;89.62;99979.84;5093627;28;20314;-60
2020/12/11 02:37:12;;;;;;;67.35;20.13;;;;;;;0.33;88.45;99969.78;5096228;28;20599;-60
2020/12/11 02:39:41;;;;;;;55.45;19.42;;;;;;;0.26;89.00;99967.59;5094464;28;20246;-60
2020/12/11 02:42:08;;;;;;;61.33;21.20;;;;;;;0.08;89.78;99964.63;5095592;28;20224;-60
2020/12/11 02:44:36;;;;;;;53.15;18.65;;;;;;;0.21;89.65;99954.56;5094021;28;20250;-60
2020/12/11 02:47:02;;;;;;;57.67;18.95;;;;;;;0.17;89.50;99951.72;5095872;28;20664;-60
2020/12/11 02:49:29;;;;;;;69.93;22.83;;;;;;;0.25;89.74;99945.50;5094451;28;20335;-62
2020/12/11 02:51:56;;;;;;;61.17;19.17;;;;;;;0.12;89.19;99947.19;5096042;28;20207;-62
2020/12/11 02:54:22;;;;;;;56.53;19.25;;;;;;;0.32;89.14;99947.72;5093833;28;20327;-62
2020/12/11 02:56:50;;;;;;;65.93;19.95;;;;;;;0.15;89.08;99948.19;5095984;28;20206;-62
2020/12/11 02:59:17;;;;;;;71.05;20.40;;;;;;;0.01;89.58;99954.81;5093822;28;20235;-62
2020/12/11 03:01:44;;;;;;;60.53;18.70;;;;;;;0.24;89.34;99948.81;5096124;28;20530;-62
2020/12/11 03:04:11;;;;;;;60.92;19.42;;;;;;;0.11;89.51;99942.88;5093789;28;20563;-62
2020/12/11 03:06:37;;;;;;;67.47;21.58;;;;;;;0.05;90.11;99934.84;5095955;28;20583;-62
2020/12/11 03:09:04;;;;;;;50.85;18.17;;;;;;;0.08;90.26;99929.09;5092611;28;20255;-60
2020/12/11 03:11:32;;;;;;;64.40;21.13;;;;;;;-0.02;89.87;99940.25;5095810;28;20235;-60
2020/12/11 03:13:59;;;;;;;60.33;17.38;;;;;;;0.00;90.25;99936.19;5093510;28;20236;-60
2020/12/11 03:16:26;;;;;;;60.92;18.73;;;;;;;0.18;89.47;99928.09;5095881;28;20227;-60
2020/12/11 03:18:53;;;;;;;62.22;19.55;;;;;;;0.17;89.27;99916.19;5094057;28;20239;-60
2020/12/11 03:21:19;;;;;;;64.38;19.50;;;;;;;0.19;89.31;99929.84;5095891;28;20200;-60
2020/12/11 03:23:46;;;;;;;51.28;18.88;;;;;;;0.04;89.63;99919.53;5083815;28;20247;-60
2020/12/11 03:26:12;;;;;;;58.08;18.30;;;;;;;0.22;89.08;99917.41;5094890;28;20287;-60
2020/12/11 03:28:39;;;;;;;56.00;18.73;;;;;;;0.18;89.25;99907.78;5094042;28;20331;-60
2020/12/11 03:31:06;;;;;;;58.00;18.10;;;;;;;0.28;89.38;99915.28;5095796;28;20210;-60
2020/12/11 03:33:33;;;;;;;51.58;17.05;;;;;;;0.24;88.87;99905.69;5095403;28;20258;-60
2020/12/11 03:36:00;;;;;;;49.15;16.83;;;;;;;0.06;89.74;99898.53;5099139;28;20224;-60
2020/12/11 03:38:26;;;;;;;52.40;17.27;;;;;;;0.07;89.88;99895.25;5097566;28;20281;-60
2020/12/11 03:40:53;;;;;;;51.70;16.30;;;;;;;0.13;90.15;99898.22;5099351;28;20510;-60
2020/12/11 03:43:20;;;;;;;53.90;17.25;;;;;;;0.04;89.65;99897.56;5097756;28;20251;-60
2020/12/11 03:45:47;;;;;;;47.10;17.98;;;;;;;0.11;90.56;99902.28;5099108;28;20220;-60
2020/12/11 03:48:14;;;;;;;57.80;19.73;;;;;;;0.09;90.24;99896.22;5097771;28;20240;-60
2020/12/11 03:50:41;;;;;;;48.35;17.10;;;;;;;0.15;89.69;99898.31;5099261;28;20283;-60
2020/12/11 03:53:07;;;;;;;65.80;20.15;;;;;;;0.02;89.89;99890.63;5097650;28;20232;-60
2020/12/11 03:55:34;;;;;;;55.67;18.95;;;;;;;0.21;89.35;99887.72;5098744;28;20230;-60
2020/12/11 03:58:01;;;;;;;48.30;17.25;;;;;;;0.05;89.74;99890.84;5097566;28;20236;-60
2020/12/11 04:00:27;;;;;;;58.17;18.45;;;;;;;0.23;89.26;99886.16;5099090;28;20207;-60
2020/12/11 04:02:54;;;;;;;45.67;18.38;;;;;;;0.17;89.62;99885.75;5097304;28;20202;-60
2020/12/11 04:05:22;;;;;;;49.28;17.05;;;;;;;0.33;89.24;99882.59;5098246;28;20569;-60
2020/12/11 04:07:49;;;;;;;54.58;18.10;;;;;;;0.29;88.68;99880.66;5096819;28;20207;-62
2020/12/11 04:10:15;;;;;;;53.72;18.13;;;;;;;0.05;89.37;99881.56;5098385;28;20232;-62
2020/12/11 04:12:42;;;;;;;57.55;17.42;;;;;;;0.08;89.83;99876.72;5096915;28;20523;-63
2020/12/11 04:15:09;;;;;;;53.70;18.35;;;;;;;0.17;89.63;99875.59;5097957;28;20232;-62
2020/12/11 04:17:35;;;;;;;56.78;17.70;;;;;;;0.00;90.17;99877.84;5098402;28;20584;-62
2020/12/11 04:20:03;;;;;;;62.50;18.23;;;;;;;0.06;90.12;99874.84;5097849;28;20315;-62
2020/12/11 04:22:30;;;;;;;53.97;18.08;;;;;;;0.19;90.07;99868.94;5098111;28;20196;-62
2020/12/11 04:24:57;;;;;;;55.90;20.48;;;;;;;0.02;90.15;99860.19;5095934;28;20316;-62
2020/12/11 04:27:23;;;;;;;55.30;18.15;;;;;;;0.03;90.48;99862.81;5098347;28;20279;-62
2020/12/11 04:29:50;;;;;;;55.97;18.40;;;;;;;0.10;89.96;99859.06;5096566;28;20327;-62
2020/12/11 04:32:16;;;;;;;58.33;20.48;;;;;;;0.06;90.08;99857.94;5098088;28;20303;-62
2020/12/11 04:34:43;;;;;;;59.72;18.75;;;;;;;0.03;89.79;99862.81;5095583;28;20281;-62
2020/12/11 04:37:10;;;;;;;51.05;17.70;;;;;;;0.02;90.43;99856.00;5097517;28;20207;-62
2020/12/11 04:39:37;;;;;;;71.82;23.02;;;;;;;0.21;90.79;99852.19;5091477;28;20228;-62
2020/12/11 04:42:04;;;;;;;55.97;19.38;;;;;;;0.01;90.29;99854.25;5097791;28;20674;-62
2020/12/11 04:44:31;;;;;;;57.67;19.65;;;;;;;0.04;89.93;99859.50;5095000;28;20328;-62
2020/12/11 04:47:05;;;;;;;65.90;18.65;;;;;;;-0.04;90.48;99845.44;5097305;28;20207;-62
2020/12/11 04:49:34;;;;;;;56.65;18.02;;;;;;;0.12;90.50;99858.38;5096149;28;20231;-62
2020/12/11 04:52:04;;;;;;;59.28;18.63;;;;;;;0.05;89.75;99850.25;5097592;28;20298;-62
2020/12/11 04:54:36;;;;;;;54.63;17.40;;;;;;;0.28;89.65;99854.38;5095695;28;20250;-62
2020/12/11 04:57:06;;;;;;;57.17;17.52;;;;;;;0.08;90.04;99856.44;5097265;28;20200;-62
2020/12/11 04:59:33;;;;;;;58.45;19.95;;;;;;;0.12;89.88;99855.84;5093591;28;20309;-62
2020/12/11 05:01:59;;;;;;;58.40;19.08;;;;;;;0.28;89.72;99851.84;5097370;28;20196;-62
2020/12/11 05:04:26;;;;;;;50.92;16.77;;;;;;;0.35;89.39;99836.25;5095376;28;20245;-62
2020/12/11 05:06:53;;;;;;;55.60;18.92;;;;;;;0.11;89.67;99841.41;5097249;28;20227;-62
2020/12/11 05:09:20;;;;;;;52.30;17.98;;;;;;;0.29;89.24;99847.66;5095344;28;20319;-63
2020/12/11 05:11:48;;;;;;;47.08;17.75;;;;;;;0.24;89.48;99843.13;5097357;28;20207;-62
2020/12/11 05:14:20;;;;;;;55.47;18.95;;;;;;;0.32;90.51;99841.13;5095062;28;20228;-60
2020/12/11 05:16:58;;;;;;;58.22;17.92;;;;;;;0.19;89.21;99836.88;5097162;28;20283;-61
2020/12/11 05:19:25;;;;;;;60.80;18.75;;;;;;;0.09;89.61;99832.81;5095554;28;20235;-60
2020/12/11 05:21:52;;;;;;;74.05;24.05;;;;;;;0.22;90.46;99828.59;5097154;28;20290;-62
2020/12/11 05:24:19;;;;;;;47.25;16.65;;;;;;;0.01;89.75;99826.34;5095178;28;20654;-62
2020/12/11 05:26:46;;;;;;;57.03;20.75;;;;;;;0.10;90.13;99824.41;5097285;28;20234;-62
2020/12/11 05:29:12;;;;;;;51.00;18.80;;;;;;;-0.04;90.25;99828.53;5095677;28;20251;-62
2020/12/11 05:31:45;;;;;;;54.30;17.13;;;;;;;0.11;89.85;99823.66;5097760;28;20287;-62
2020/12/11 05:34:13;;;;;;;55.70;19.20;;;;;;;0.10;89.91;99823.56;5095314;28;20262;-63
2020/12/11 05:36:50;;;;;;;59.58;19.58;;;;;;;0.06;90.00;99822.44;5097467;28;20294;-62
2020/12/11 05:39:19;;;;;;;61.92;19.05;;;;;;;0.16;89.59;99818.00;5095588;28;20242;-62
2020/12/11 05:41:46;;;;;;;46.17;15.50;;;;;;;0.19;89.50;99814.03;5097177;28;20679;-62
2020/12/11 05:44:26;;;;;;;55.15;18.88;;;;;;;0.04;89.72;99813.84;5095297;28;20531;-62
2020/12/11 05:46:55;;;;;;;51.92;16.45;;;;;;;0.12;89.89;99806.78;5097363;28;20207;-62
2020/12/11 05:49:27;;;;;;;45.03;16.40;;;;;;;0.10;89.77;99806.66;5095360;28;20293;-62
2020/12/11 05:52:00;;;;;;;51.22;17.35;;;;;;;0.09;89.46;99804.91;5097117;28;20203;-62
2020/12/11 05:54:27;;;;;;;50.97;17.00;;;;;;;0.22;89.94;99805.75;5095017;28;20312;-62
2020/12/11 05:56:53;;;;;;;55.72;17.35;;;;;;;0.02;89.69;99814.53;5097025;28;20291;-62
2020/12/11 05:59:21;;;;;;;54.97;17.52;;;;;;;0.18;89.52;99808.84;5095200;28;20319;-62
2020/12/11 06:01:53;;;;;;;48.78;15.15;;;;;;;-0.03;89.75;99801.53;5096997;28;20201;-62
2020/12/11 06:04:20;;;;;;;48.17;16.70;;;;;;;-0.07;89.45;99802.09;5094876;28;20316;-62
2020/12/11 06:06:48;;;;;;;47.67;16.55;;;;;;;0.12;89.20;99806.78;5096744;28;20200;-62
2020/12/11 06:09:15;;;;;;;54.30;18.27;;;;;;;0.12;89.95;99806.78;5095420;28;20231;-62
2020/12/11 06:11:46;;;;;;;62.92;18.95;;;;;;;-0.02;89.53;99798.22;5096802;28;20235;-62
2020/12/11 06:14:22;;;;;;;53.92;17.58;;;;;;;0.10;89.42;99799.06;5094072;28;20267;-62
2020/12/11 06:16:52;;;;;;;51.53;18.33;;;;;;;0.06;90.01;99804.69;5096807;28;20200;-63
2020/12/11 06:19:19;;;;;;;51.25;18.08;;;;;;;-0.06;90.14;99797.13;5094753;28;20322;-63
2020/12/11 06:21:46;;;;;;;54.03;17.17;;;;;;;0.01;89.35;99803.50;5096633;28;20215;-62
2020/12/11 06:24:29;;;;;;;58.65;19.95;;;;;;;0.10;90.50;99799.06;5094653;28;20323;-62
2020/12/11 06:26:57;;;;;;;57.60;19.02;;;;;;;0.22;89.26;99803.22;5096419;28;20295;-62
2020/12/11 06:29:27;;;;;;;51.70;16.55;;;;;;;0.23;89.25;99804.97;5094750;28;20254;-62
2020/12/11 06:31:55;;;;;;;58.17;18.13;;;;;;;0.02;89.25;99800.19;5096542;28;20200;-62
2020/12/11 06:34:24;;;;;;;60.22;19.63;;;;;;;0.03;89.72;99796.88;5094284;28;20240;-62
2020/12/11 06:36:51;;;;;;;49.25;18.17;;;;;;;0.08;89.40;99805.69;5096585;28;20698;-62
2020/12/11 06:39:44;;;;;;;57.47;19.17;;;;;;;0.18;88.96;99801.22;5089079;28;20255;-62
2020/12/11 06:42:47;;;;;;;63.97;19.65;;;;;;;0.25;88.70;99795.78;5096140;28;20295;-62
2020/12/11 06:45:15;;;;;;;53.17;17.55;;;;;;;0.06;89.76;99802.16;5095615;28;20332;-62
2020/12/11 06:47:47;;;;;;;54.70;20.10;;;;;;;-0.01;89.95;99805.03;5094394;28;20200;-63
2020/12/11 06:50:17;;;;;;;59.25;19.55;;;;;;;0.10;89.84;99801.59;5094048;28;20227;-62
2020/12/11 06:52:45;;;;;;;53.60;18.25;;;;;;;-0.05;89.59;99798.03;5094723;28;20295;-63
2020/12/11 06:55:11;;;;;;;70.00;21.30;;;;;;;-0.02;89.76;99799.09;5095413;28;20318;-60
2020/12/11 06:57:40;;;;;;;61.80;17.35;;;;;;;-0.12;89.67;99798.38;5094583;28;20303;-61
2020/12/11 07:00:30;;;;;;;57.28;17.52;;;;;;;0.13;90.16;99796.75;5096181;28;20406;-60
2020/12/11 07:03:22;;;;;;;49.67;17.90;;;;;;;0.00;89.63;99786.53;5094402;28;20236;-63
2020/12/11 07:05:57;;;;;;;56.97;18.30;;;;;;;-0.07;90.41;99790.28;5095815;28;20563;-62
2020/12/11 07:08:24;;;;;;;56.63;18.67;;;;;;;0.12;89.74;99792.41;5095839;28;20314;-62
2020/12/11 07:10:51;;;;;;;62.40;18.27;;;;;;;0.17;89.66;99799.47;5100316;28;20291;-62
2020/12/11 07:13:18;;;;;;;53.47;19.15;;;;;;;0.15;89.54;99790.88;5098124;28;20239;-62
2020/12/11 07:15:44;;;;;;;56.30;18.95;;;;;;;0.26;89.75;99795.91;5099667;28;20220;-62
2020/12/11 07:18:15;;;;;;;65.15;19.65;;;;;;;0.09;89.47;99791.34;5098445;28;20235;-62
2020/12/11 07:20:48;;;;;;;63.22;18.73;;;;;;;0.20;89.50;99789.53;5100121;28;20242;-60
2020/12/11 07:23:17;;;;;;;62.63;18.75;;;;;;;0.14;89.70;99779.84;5097576;28;20290;-62
2020/12/11 07:25:45;;;;;;;56.97;19.00;;;;;;;0.13;89.49;99773.91;5099561;28;20277;-62
2020/12/11 07:28:12;;;;;;;61.25;19.83;;;;;;;0.15;89.41;99774.00;5098080;28;20267;-62
2020/12/11 07:30:39;;;;;;;61.53;17.88;;;;;;;0.22;89.52;99773.66;5099852;28;20295;-62
2020/12/11 07:33:09;;;;;;;57.42;20.45;;;;;;;0.46;89.03;99760.81;5098014;28;20232;-62
2020/12/11 07:35:37;;;;;;;60.70;18.17;;;;;;;0.20;89.00;99759.09;5099439;28;20255;-63
2020/12/11 07:38:03;;;;;;;71.15;23.38;;;;;;;0.24;89.38;99767.00;5098006;28;20227;-63
2020/12/11 07:40:31;;;;;;;70.70;21.60;;;;;;;0.19;89.34;99757.31;5099665;28;20352;-63
2020/12/11 07:42:58;;;;;;;70.55;21.88;;;;;;;0.22;89.02;99757.53;5098102;28;20243;-62
2020/12/11 07:45:26;;;;;;;68.10;21.25;;;;;;;0.13;89.75;99756.16;5099175;28;20220;-62
2020/12/11 07:47:54;;;;;;;60.42;20.33;;;;;;;0.08;89.42;99749.88;5098236;28;20207;-63
2020/12/11 07:50:24;;;;;;;66.90;20.65;;;;;;;0.10;89.83;99750.84;5099391;28;20208;-62
2020/12/11 07:52:53;;;;;;;68.38;21.80;;;;;;;0.02;90.22;99748.56;5097722;28;20287;-63
2020/12/11 07:55:20;;;;;;;69.68;21.25;;;;;;;-0.04;90.27;99749.91;5099128;28;20235;-62
2020/12/11 07:57:52;;;;;;;66.53;19.85;;;;;;;0.06;89.84;99746.34;5098133;28;20200;-63
2020/12/11 08:00:19;;;;;;;66.78;20.25;;;;;;;0.11;90.05;99745.00;5099104;28;20307;-62
2020/12/11 08:02:51;;;;;;;73.32;22.55;;;;;;;0.08;89.83;99734.66;5097836;28;20502;-63
2020/12/11 08:05:18;;;;;;;67.78;20.80;;;;;;;0.16;90.10;99742.78;5098710;28;20311;-60
2020/12/11 08:07:48;;;;;;;67.10;22.45;;;;;;;0.19;89.61;99747.16;5097616;28;20298;-60
2020/12/11 08:10:16;;;;;;;65.18;21.33;;;;;;;0.19;89.68;99742.97;5099111;28;20310;-60
2020/12/11 08:12:43;;;;;;;85.38;23.05;;;;;;;0.13;89.81;99742.56;5097483;28;20208;-61
2020/12/11 08:15:12;;;;;;;68.47;22.27;;;;;;;0.06;90.19;99740.41;5098460;28;20618;-60
2020/12/11 08:17:40;;;;;;;82.25;22.25;;;;;;;0.05;90.02;99734.44;5097358;28;20197;-61
2020/12/11 08:20:08;;;;;;;83.35;22.85;;;;;;;0.03;89.98;99741.06;5098549;28;20232;-60
2020/12/11 08:22:36;;;;;;;75.72;22.15;;;;;;;-0.03;90.06;99740.66;5098576;28;20200;-60
2020/12/11 08:25:17;;;;;;;74.32;23.33;;;;;;;0.13;90.01;99738.38;5098065;28;20307;-60
2020/12/11 08:27:43;;;;;;;79.53;24.85;;;;;;;0.20;89.87;99733.72;5097394;28;20234;-60
2020/12/11 08:30:13;;;;;;;77.68;24.42;;;;;;;0.23;89.61;99732.28;5098549;28;20220;-61
2020/12/11 08:32:40;;;;;;;90.47;24.48;;;;;;;0.20;89.73;99729.50;5096764;28;20223;-61
2020/12/11 08:35:13;;;;;;;85.75;23.63;;;;;;;0.18;89.67;99720.94;5098167;28;20684;-61
2020/12/11 08:37:51;;;;;;;90.28;25.33;;;;;;;0.25;89.88;99724.75;5096108;28;20192;-61
2020/12/11 08:40:17;;;;;;;91.70;25.35;;;;;;;-0.11;90.52;99719.84;5098555;28;20228;-61
2020/12/11 08:42:59;;;;;;;88.45;24.77;;;;;;;-0.13;90.94;99716.31;5096570;28;20686;-61
2020/12/11 08:45:30;;;;;;;89.20;24.85;;;;;;;-0.20;91.60;99712.47;5098197;28;20312;-60
2020/12/11 08:50:44;;;;;;;93.57;25.55;;;;;;;-0.06;90.97;99705.81;5096932;28;20509;-62
2020/12/11 08:53:13;;;;;;;97.63;25.90;;;;;;;-0.04;90.83;99703.41;5096036;28;20319;-62
2020/12/11 08:55:40;;;;;;;98.22;26.25;;;;;;;-0.02;90.62;99701.81;5097581;28;20216;-62
2020/12/11 08:58:07;;;;;;;94.03;25.92;;;;;;;-0.07;91.19;99706.59;5096784;28;20238;-61
2020/12/11 09:00:35;;;;;;;89.55;25.92;;;;;;;0.07;90.61;99691.44;5098217;28;20220;-60
2020/12/11 09:03:03;;;;;;;93.22;24.00;;;;;;;-0.02;90.50;99700.19;5096304;28;20311;-60
2020/12/11 09:05:29;;;;;;;97.20;23.83;;;;;;;-0.18;91.30;99690.66;5097584;28;20306;-60
2020/12/11 09:07:56;;;;;;;103.13;28.70;;;;;;;-0.09;91.54;99695.47;5096377;28;20558;-61
2020/12/11 09:10:23;;;;;;;93.60;25.40;;;;;;;0.08;91.14;99686.47;5098083;28;20203;-62
2020/12/11 09:12:51;;;;;;;102.30;27.02;;;;;;;0.05;91.30;99688.78;5096487;28;20211;-63
2020/12/11 09:15:19;;;;;;;97.88;26.02;;;;;;;-0.09;91.05;99684.44;5097282;28;20290;-63
2020/12/11 09:17:46;;;;;;;87.35;23.80;;;;;;;-0.03;91.04;99695.00;5096275;28;20670;-62
2020/12/11 09:20:14;;;;;;;119.03;29.92;;;;;;;0.01;91.99;99696.09;5097571;28;20285;-63
2020/12/11 09:22:41;;;;;;;97.38;25.98;;;;;;;0.34;90.54;99697.44;5095894;28;20204;-63
2020/12/11 09:25:08;;;;;;;95.97;24.70;;;;;;;0.22;90.39;99689.03;5097193;28;20282;-63
2020/12/11 09:27:36;;;;;;;89.80;24.40;;;;;;;0.12;90.31;99685.88;5097602;28;20226;-63
2020/12/11 09:30:14;;;;;;;73.80;22.63;;;;;;;0.25;90.11;99667.28;5097190;28;20224;-63
2020/12/11 09:32:49;;;;;;;100.13;23.95;;;;;;;0.24;89.67;99668.06;5095311;28;20207;-63
2020/12/11 09:35:17;;;;;;;79.82;23.55;;;;;;;0.11;90.23;99663.81;5096978;28;20245;-62
2020/12/11 09:37:49;;;;;;;89.50;25.58;;;;;;;0.16;90.17;99656.53;5096171;28;20206;-63
2020/12/11 09:40:18;;;;;;;85.85;23.13;;;;;;;0.26;89.54;99660.56;5097521;28;20220;-62
2020/12/11 09:43:06;;;;;;;84.80;25.70;;;;;;;0.19;89.99;99650.75;5095761;28;20503;-62
2020/12/11 09:45:35;;;;;;;85.35;23.15;;;;;;;0.16;89.72;99654.00;5096833;28;20216;-62
2020/12/11 09:50:54;;;;;;;87.35;25.35;;;;;;;0.17;90.34;99649.78;5097364;28;20223;-62
2020/12/11 09:53:47;;;;;;;97.75;27.00;;;;;;;0.33;91.52;99650.00;5095595;28;20322;-62
2020/12/11 09:56:21;;;;;;;80.00;24.90;;;;;;;0.28;91.10;99650.47;5096982;28;20294;-62
2020/12/11 09:58:49;;;;;;;87.72;24.90;;;;;;;0.36;89.85;99655.28;5095324;28;20260;-63
2020/12/11 10:01:20;;;;;;;95.30;25.90;;;;;;;0.38;89.66;99652.84;5096922;28;20227;-62
2020/12/11 10:03:48;;;;;;;104.82;27.70;;;;;;;0.29;89.97;99663.28;5095226;28;20255;-63
2020/12/11 10:06:23;;;;;;;92.25;27.27;;;;;;;0.27;90.57;99649.63;5096485;28;20211;-60
2020/12/11 10:08:50;;;;;;;100.30;28.83;;;;;;;0.27;90.56;99654.69;5095308;28;20323;-61
2020/12/11 10:11:18;;;;;;;91.20;25.35;;;;;;;0.21;90.30;99656.81;5096842;28;20196;-60
2020/12/11 10:13:46;;;;;;;103.43;26.23;;;;;;;0.09;90.92;99652.69;5094733;28;20619;-60
2020/12/11 10:16:15;;;;;;;86.30;24.48;;;;;;;0.18;90.20;99659.16;5096315;28;20226;-60
2020/12/11 10:18:45;;;;;;;100.20;26.67;;;;;;;0.33;89.76;99660.16;5094995;28;20546;-60
2020/12/11 10:21:12;;;;;;;86.43;25.13;;;;;;;0.23;89.96;99658.69;5096790;28;20204;-61
2020/12/11 10:23:39;;;;;;;97.70;29.33;;;;;;;0.40;90.33;99651.28;5094817;28;20250;-60
2020/12/11 10:26:06;;;;;;;81.28;25.88;;;;;;;0.44;89.81;99654.88;5096233;28;20226;-61
2020/12/11 10:28:33;;;;;;;107.47;27.25;;;;;;;0.47;89.20;99652.56;5094934;28;20654;-60
2020/12/11 10:30:59;;;;;;;100.50;26.70;;;;;;;0.39;89.24;99647.88;5096449;28;20202;-60
2020/12/11 10:33:26;;;;;;;87.65;26.58;;;;;;;0.54;88.82;99634.41;5094513;28;20243;-60
2020/12/11 10:35:52;;;;;;;84.03;25.60;;;;;;;0.48;89.82;99641.63;5095431;28;20673;-61
2020/12/11 10:38:19;;;;;;;89.95;24.27;;;;;;;0.35;89.49;99637.41;5095092;28;20236;-61
2020/12/11 10:40:47;;;;;;;79.70;24.17;;;;;;;0.42;89.67;99628.53;5096304;28;20224;-61
2020/12/11 10:43:13;;;;;;;80.05;25.13;;;;;;;0.55;89.24;99615.84;5093766;28;20267;-60
2020/12/11 10:45:40;;;;;;;97.45;26.48;;;;;;;0.51;89.57;99617.31;5095416;28;21104;-60
2020/12/11 10:48:07;;;;;;;87.82;27.20;;;;;;;0.58;90.01;99618.59;5094798;28;20255;-61
2020/12/11 10:50:33;;;;;;;89.35;26.13;;;;;;;0.44;89.07;99612.63;5096391;28;20196;-60
2020/12/11 10:53:00;;;;;;;91.13;26.60;;;;;;;0.36;89.27;99609.59;5094182;28;20255;-61
2020/12/11 10:55:27;;;;;;;77.72;25.00;;;;;;;0.39;89.83;99609.81;5095759;28;20306;-60
2020/12/11 10:57:54;;;;;;;87.22;25.77;;;;;;;0.33;89.17;99603.44;5094389;28;20621;-60
2020/12/11 11:00:21;;;;;;;87.15;24.58;;;;;;;0.44;88.86;99593.97;5095953;28;20229;-60
2020/12/11 11:02:48;;;;;;;89.25;27.08;;;;;;;0.49;89.01;99590.06;5094184;28;20595;-61
2020/12/11 11:05:15;;;;;;;88.95;25.77;;;;;;;0.38;89.48;99582.69;5095754;28;20223;-60
2020/12/11 11:07:43;;;;;;;82.70;26.92;;;;;;;0.55;89.63;99584.53;5094620;28;20204;-60
2020/12/11 11:10:16;;;;;;;97.45;26.98;;;;;;;0.44;88.90;99591.44;5096047;28;20228;-60
2020/12/11 11:12:46;;;;;;;89.07;24.92;;;;;;;0.45;89.13;99583.06;5094585;28;20200;-61
2020/12/11 11:18:12;;;;;;;86.22;26.17;;;;;;;0.35;89.60;99587.53;5094335;28;20227;-62
2020/12/11 11:23:37;;;;;;;95.10;26.48;;;;;;;0.47;89.39;99579.81;5094373;28;20255;-63
2020/12/11 11:26:15;;;;;;;91.95;25.30;;;;;;;0.67;88.09;99586.16;5095435;28;20228;-62
2020/12/11 11:28:42;;;;;;;81.85;25.20;;;;;;;0.50;89.26;99581.66;5093806;28;20661;-62
2020/12/11 11:31:11;;;;;;;92.93;25.40;;;;;;;0.51;88.69;99579.25;5095772;28;20303;-62
2020/12/11 11:33:38;;;;;;;82.25;24.95;;;;;;;0.55;87.77;99575.22;5093637;28;20267;-63
2020/12/11 11:36:05;;;;;;;85.55;26.40;;;;;;;0.46;89.49;99567.06;5095420;28;20220;-62
2020/12/11 11:38:32;;;;;;;92.07;23.52;;;;;;;0.48;88.63;99555.31;5094145;28;20244;-63
2020/12/11 11:40:59;;;;;;;82.55;26.48;;;;;;;0.56;88.50;99561.75;5095664;28;20540;-63